Time;durP1;ratioP1;P1;durP2;ratioP2;P2;SDS_P1;SDS_P2;PMS_P1;PMS_P2;Temp;Humidity;BMP_temperature;BMP_pressure;BME280_temperature;BME280_humidity;BME280_pressure;Samples;Min_cycle;Max_cycle;Signal;HPM_P1;HPM_P2
2022/05/13 00:01:23;;;;;;;3.40;1.95;;;;;;;11.72;67.18;101716.69;4822928;29;20675;-68
2022/05/13 00:03:48;;;;;;;6.85;2.08;;;;;;;11.71;66.76;101723.88;4823102;29;20524;-68
2022/05/13 00:06:14;;;;;;;6.32;2.63;;;;;;;11.67;67.11;101722.59;4822587;29;20097;-68
2022/05/13 00:08:39;;;;;;;8.52;2.15;;;;;;;11.65;67.31;101721.09;4822870;29;20038;-68
2022/05/13 00:11:07;;;;;;;7.82;2.88;;;;;;;11.60;67.47;101721.63;4822380;29;20038;-68
2022/05/13 00:13:32;;;;;;;7.63;1.92;;;;;;;11.52;66.83;101719.88;4822690;29;20038;-68
2022/05/13 00:16:00;;;;;;;6.18;2.10;;;;;;;11.48;67.79;101725.78;4822865;29;20406;-68
2022/05/13 00:18:26;;;;;;;5.13;2.95;;;;;;;11.43;67.87;101722.81;4822855;29;20534;-68
2022/05/13 00:20:52;;;;;;;10.18;2.85;;;;;;;11.36;68.21;101712.03;4822418;29;20170;-68
2022/05/13 00:23:18;;;;;;;10.13;2.00;;;;;;;11.31;67.81;101714.41;4806136;29;20502;-68
2022/05/13 00:25:44;;;;;;;3.88;2.75;;;;;;;11.26;68.89;101722.94;4823055;29;20176;-68
2022/05/13 00:28:10;;;;;;;7.10;2.10;;;;;;;11.24;69.08;101721.47;4822702;29;20474;-69
2022/05/13 00:30:39;;;;;;;10.52;5.25;;;;;;;11.22;68.76;101718.97;4822834;29;20030;-68
2022/05/13 00:33:05;;;;;;;11.70;3.83;;;;;;;11.18;69.13;101717.66;4822669;29;20092;-68
2022/05/13 00:35:31;;;;;;;7.43;2.97;;;;;;;11.15;69.53;101720.69;4822483;29;20046;-68
2022/05/13 00:37:56;;;;;;;10.30;3.17;;;;;;;11.11;69.96;101708.75;4822571;29;20034;-68
2022/05/13 00:40:22;;;;;;;7.82;2.72;;;;;;;11.09;69.75;101708.91;4822533;29;20471;-68
2022/05/13 00:42:48;;;;;;;6.82;2.67;;;;;;;11.04;70.48;101705.94;4822597;29;20110;-68
2022/05/13 00:45:15;;;;;;;5.47;2.83;;;;;;;11.05;70.51;101718.25;4822535;29;20041;-68
2022/05/13 00:47:42;;;;;;;8.05;3.22;;;;;;;11.02;70.38;101718.63;4822463;29;20072;-68
2022/05/13 00:50:10;;;;;;;11.32;3.15;;;;;;;10.96;70.76;101720.19;4822404;29;20073;-68
2022/05/13 00:52:36;;;;;;;9.10;2.53;;;;;;;10.94;70.98;101713.34;4822270;29;20038;-68
2022/05/13 00:55:08;;;;;;;8.50;3.05;;;;;;;10.91;71.23;101714.53;4822229;29;20038;-68
2022/05/13 00:57:37;;;;;;;11.05;3.33;;;;;;;10.90;71.53;101715.56;4822372;29;20114;-68
2022/05/13 01:00:08;;;;;;;7.72;2.40;;;;;;;10.88;71.26;101711.41;4822340;29;20391;-68
2022/05/13 01:02:35;;;;;;;7.78;3.22;;;;;;;10.86;71.08;101711.56;4822172;29;20072;-68
2022/05/13 01:05:00;;;;;;;6.93;2.30;;;;;;;10.81;71.28;101705.94;4822182;29;20083;-68
2022/05/13 01:07:25;;;;;;;6.28;2.30;;;;;;;10.83;71.50;101711.94;4821942;29;20066;-68
2022/05/13 01:09:57;;;;;;;4.32;2.30;;;;;;;10.85;71.56;101706.44;4822089;29;20034;-68
2022/05/13 01:12:29;;;;;;;5.95;2.95;;;;;;;10.84;71.15;101712.75;4822040;29;20356;-68
2022/05/13 01:14:59;;;;;;;10.32;3.78;;;;;;;10.83;71.60;101711.09;4821859;29;20364;-68
2022/05/13 01:20:17;;;;;;;8.90;2.65;;;;;;;10.78;72.37;101708.97;4822283;29;20046;-68
2022/05/13 01:22:49;;;;;;;9.18;2.95;;;;;;;10.75;72.60;101703.97;4821267;29;20030;-68
2022/05/13 01:25:18;;;;;;;6.00;2.70;;;;;;;10.72;73.12;101702.50;4821897;29;20121;-68
2022/05/13 01:27:45;;;;;;;8.55;2.67;;;;;;;10.70;72.98;101699.16;4821803;29;20049;-68
2022/05/13 01:30:14;;;;;;;6.32;3.47;;;;;;;10.71;73.30;101708.00;4821827;29;20444;-68
2022/05/13 01:32:40;;;;;;;9.02;3.83;;;;;;;10.70;73.14;101707.16;4821716;29;20515;-68
2022/05/13 01:35:06;;;;;;;6.63;2.95;;;;;;;10.67;72.91;101698.69;4821714;29;20058;-68
2022/05/13 01:37:33;;;;;;;9.13;2.65;;;;;;;10.64;73.00;101701.72;4821917;29;20034;-68
2022/05/13 01:39:58;;;;;;;6.93;2.70;;;;;;;10.64;73.13;101709.72;4821579;29;20038;-68
2022/05/13 01:42:24;;;;;;;6.40;3.38;;;;;;;10.60;72.92;101706.56;4821535;29;20045;-68
2022/05/13 01:44:49;;;;;;;8.93;3.75;;;;;;;10.58;72.04;101708.56;4821532;29;20038;-68
2022/05/13 01:47:14;;;;;;;8.60;2.55;;;;;;;10.56;72.05;101709.75;4821723;29;20039;-68
2022/05/13 01:49:40;;;;;;;10.30;2.28;;;;;;;10.53;71.73;101713.59;4821579;29;20478;-69
2022/05/13 01:52:05;;;;;;;8.48;2.78;;;;;;;10.50;71.83;101714.78;4821557;29;20045;-68
2022/05/13 01:54:31;;;;;;;7.60;2.50;;;;;;;10.51;71.76;101716.44;4821416;29;20072;-68
2022/05/13 01:56:56;;;;;;;5.70;3.00;;;;;;;10.52;71.36;101720.78;4821409;29;20069;-68
2022/05/13 01:59:21;;;;;;;4.22;2.28;;;;;;;10.56;71.25;101715.94;4821337;29;20981;-68
2022/05/13 02:01:47;;;;;;;6.53;2.13;;;;;;;10.59;71.13;101717.44;4821298;29;20577;-68
2022/05/13 02:04:12;;;;;;;4.68;2.72;;;;;;;10.61;71.56;101716.25;4821418;29;20704;-68
2022/05/13 02:06:37;;;;;;;9.27;3.00;;;;;;;10.65;71.43;101714.03;4804736;29;20058;-68
2022/05/13 02:09:03;;;;;;;14.90;5.18;;;;;;;10.67;71.01;101712.88;4821209;29;20467;-68
2022/05/13 02:11:31;;;;;;;4.22;2.22;;;;;;;10.68;70.39;101711.84;4821183;29;20104;-68
2022/05/13 02:13:57;;;;;;;5.35;2.38;;;;;;;10.67;70.88;101710.19;4821002;29;20045;-68
2022/05/13 02:16:22;;;;;;;4.85;2.33;;;;;;;10.65;70.79;101709.53;4820833;29;20023;-68
2022/05/13 02:18:48;;;;;;;5.53;2.40;;;;;;;10.62;70.48;101709.06;4821092;29;20398;-68
2022/05/13 02:21:14;;;;;;;8.77;2.80;;;;;;;10.59;70.69;101710.25;4821105;29;20475;-68
2022/05/13 02:23:40;;;;;;;9.40;2.10;;;;;;;10.56;70.63;101699.94;4820630;29;20120;-68
2022/05/13 02:26:09;;;;;;;6.75;1.98;;;;;;;10.51;70.87;101703.13;4820715;29;20849;-68
2022/05/13 02:28:35;;;;;;;6.05;3.25;;;;;;;10.49;71.29;101702.47;4820912;29;20030;-68
2022/05/13 02:31:01;;;;;;;8.48;2.22;;;;;;;10.47;71.29;101708.97;4820873;29;20049;-68
2022/05/13 02:33:30;;;;;;;10.93;2.67;;;;;;;10.46;70.97;101708.16;4820950;29;20038;-68
2022/05/13 02:35:56;;;;;;;7.85;2.22;;;;;;;10.47;70.87;101709.78;4820548;29;20073;-68
2022/05/13 02:38:22;;;;;;;3.38;1.95;;;;;;;10.46;71.57;101704.66;4821398;29;20057;-68
2022/05/13 02:43:32;;;;;;;6.53;2.65;;;;;;;10.47;71.05;101704.47;4821019;29;20049;-68
2022/05/13 02:45:58;;;;;;;10.90;2.92;;;;;;;10.47;71.67;101707.13;4820784;29;20022;-68
2022/05/13 02:48:24;;;;;;;9.05;2.75;;;;;;;10.48;71.74;101695.47;4820655;29;20034;-68
2022/05/13 02:50:50;;;;;;;6.13;2.50;;;;;;;10.47;71.87;101693.78;4820703;29;20040;-68
2022/05/13 02:53:15;;;;;;;7.28;2.35;;;;;;;10.53;71.94;101701.13;4804060;29;20042;-68
2022/05/13 02:55:41;;;;;;;6.40;2.08;;;;;;;10.56;71.91;101693.75;4820534;29;20167;-68
2022/05/13 02:58:06;;;;;;;10.07;3.05;;;;;;;10.55;72.37;101697.44;4820720;29;20129;-68
2022/05/13 03:00:33;;;;;;;7.28;2.42;;;;;;;10.58;72.10;101689.91;4820652;29;20080;-68
2022/05/13 03:02:58;;;;;;;11.80;2.70;;;;;;;10.59;72.32;101696.91;4820568;29;20045;-68
2022/05/13 03:05:24;;;;;;;12.00;3.15;;;;;;;10.59;72.32;101702.25;4820527;29;20039;-68
2022/05/13 03:07:50;;;;;;;8.32;3.40;;;;;;;10.59;72.76;101691.56;4820415;29;20054;-68
2022/05/13 03:10:16;;;;;;;9.02;2.47;;;;;;;10.59;72.65;101696.09;4820550;29;20087;-68
2022/05/13 03:12:42;;;;;;;9.07;2.63;;;;;;;10.62;72.77;101690.41;4820501;29;20038;-68
2022/05/13 03:15:10;;;;;;;2.55;2.25;;;;;;;10.60;72.81;101692.41;4820462;29;20037;-68
2022/05/13 03:17:36;;;;;;;7.30;3.97;;;;;;;10.65;72.65;101698.03;4820460;29;20073;-68
2022/05/13 03:20:02;;;;;;;10.05;3.13;;;;;;;10.65;73.19;101687.38;4820259;29;20511;-68
2022/05/13 03:22:28;;;;;;;4.78;2.20;;;;;;;10.64;73.10;101697.22;4820326;29;20034;-68
2022/05/13 03:24:53;;;;;;;11.20;3.63;;;;;;;10.66;73.12;101684.53;4820206;29;20519;-68
2022/05/13 03:27:18;;;;;;;7.28;3.38;;;;;;;10.66;73.29;101687.22;4819950;29;20149;-68
2022/05/13 03:29:43;;;;;;;12.65;3.30;;;;;;;10.66;73.42;101687.22;4820245;29;20066;-68
2022/05/13 03:32:09;;;;;;;6.70;2.85;;;;;;;10.65;73.15;101688.19;4820418;29;20062;-68
2022/05/13 03:34:38;;;;;;;11.20;3.30;;;;;;;10.65;73.80;101684.69;4820165;29;20498;-68
2022/05/13 03:37:04;;;;;;;5.60;2.90;;;;;;;10.61;73.98;101680.72;4820308;29;20031;-68
2022/05/13 03:39:30;;;;;;;11.98;3.42;;;;;;;10.67;74.27;101690.69;4820197;29;20087;-68
2022/05/13 03:41:55;;;;;;;6.95;2.88;;;;;;;10.67;74.49;101690.69;4820195;29;20428;-68
2022/05/13 03:44:21;;;;;;;5.70;2.60;;;;;;;10.60;74.79;101674.56;4820125;29;20066;-68
2022/05/13 03:46:46;;;;;;;11.73;3.28;;;;;;;10.64;75.22;101683.88;4822131;29;20038;-68
2022/05/13 03:49:11;;;;;;;7.05;2.95;;;;;;;10.60;75.46;101693.22;4823096;29;20414;-68
2022/05/13 03:51:37;;;;;;;7.95;2.40;;;;;;;10.58;75.75;101697.06;4823042;29;20060;-68
2022/05/13 03:54:03;;;;;;;11.35;3.03;;;;;;;10.56;76.09;101691.06;4823418;29;20429;-68
2022/05/13 03:56:29;;;;;;;10.85;3.58;;;;;;;10.53;76.28;101698.44;4823073;29;20050;-68
2022/05/13 03:58:54;;;;;;;15.93;4.13;;;;;;;10.51;76.35;101687.13;4823256;29;20065;-68
2022/05/13 04:01:20;;;;;;;8.02;3.10;;;;;;;10.49;76.37;101689.13;4823057;29;20483;-68
2022/05/13 04:03:47;;;;;;;5.32;2.85;;;;;;;10.48;76.78;101694.66;4823093;29;20117;-68
2022/05/13 04:09:01;;;;;;;12.63;3.20;;;;;;;10.48;76.86;101697.31;4823315;29;20045;-68
2022/05/13 04:11:29;;;;;;;6.47;3.00;;;;;;;10.43;77.13;101692.50;4823055;29;20094;-68
2022/05/13 04:16:39;;;;;;;12.30;3.60;;;;;;;10.42;77.44;101695.31;4822558;29;20057;-68
2022/05/13 04:19:05;;;;;;;14.70;4.78;;;;;;;10.45;77.40;101698.50;4806283;29;20035;-68
2022/05/13 04:21:32;;;;;;;7.82;3.17;;;;;;;10.46;77.59;101697.47;4822600;29;20041;-68
2022/05/13 04:24:01;;;;;;;4.55;2.72;;;;;;;10.47;77.63;101690.31;4822482;29;20045;-68
2022/05/13 04:26:27;;;;;;;12.02;4.00;;;;;;;10.47;77.86;101696.47;4822653;29;20057;-68
2022/05/13 04:28:53;;;;;;;13.40;4.18;;;;;;;10.45;77.96;101695.81;4822423;29;20530;-68
2022/05/13 04:31:22;;;;;;;9.98;3.17;;;;;;;10.43;78.01;101697.84;4822443;29;21062;-68
2022/05/13 04:33:48;;;;;;;9.45;3.50;;;;;;;10.41;78.30;101686.50;4822660;29;20129;-68
2022/05/13 04:36:15;;;;;;;10.75;3.47;;;;;;;10.41;78.23;101696.34;4822491;29;20725;-68
2022/05/13 04:38:41;;;;;;;21.52;5.03;;;;;;;10.44;78.47;101717.31;4822527;29;20035;-68
2022/05/13 04:43:52;;;;;;;11.32;3.70;;;;;;;11.18;77.44;101717.66;4822717;29;20139;-68
2022/05/13 04:46:17;;;;;;;13.45;3.90;;;;;;;12.52;72.75;101712.41;4822428;29;20038;-68
2022/05/13 04:48:43;;;;;;;13.45;4.05;;;;;;;13.63;68.49;101716.38;4822387;29;20049;-68
2022/05/13 04:51:10;;;;;;;9.90;3.80;;;;;;;14.54;65.41;101710.03;4822432;29;20046;-68
2022/05/13 04:53:37;;;;;;;8.45;4.22;;;;;;;15.11;62.70;101722.16;4822257;29;20039;-68
2022/05/13 04:56:05;;;;;;;11.98;4.25;;;;;;;15.10;61.58;101724.03;4822237;29;20146;-68
2022/05/13 04:58:31;;;;;;;8.88;3.70;;;;;;;14.59;62.78;101731.75;4821706;29;20865;-68
2022/05/13 05:00:59;;;;;;;10.23;3.50;;;;;;;14.19;64.56;101732.38;4822146;29;20087;-68
2022/05/13 05:03:27;;;;;;;13.63;3.63;;;;;;;13.99;65.05;101734.97;4822275;29;20050;-68
2022/05/13 05:05:53;;;;;;;9.07;3.92;;;;;;;13.71;65.75;101731.50;4821996;29;20159;-68
2022/05/13 05:08:18;;;;;;;9.10;3.13;;;;;;;13.35;66.81;101735.94;4822151;29;20071;-68
2022/05/13 05:10:45;;;;;;;10.68;4.00;;;;;;;13.05;67.92;101750.50;4822133;29;20402;-68
2022/05/13 05:13:17;;;;;;;12.18;3.80;;;;;;;12.73;68.87;101747.25;4822131;29;20524;-68
2022/05/13 05:15:45;;;;;;;9.77;4.20;;;;;;;12.40;70.08;101730.81;4805437;29;20039;-68
2022/05/13 05:18:11;;;;;;;10.15;4.00;;;;;;;12.24;71.09;101747.91;4821721;29;20507;-68
2022/05/13 05:20:36;;;;;;;23.10;5.15;;;;;;;12.10;71.96;101754.88;4821824;29;20042;-68
2022/05/13 05:23:02;;;;;;;9.98;4.57;;;;;;;11.98;72.70;101748.38;4821987;29;20150;-68
2022/05/13 05:25:29;;;;;;;16.90;5.78;;;;;;;11.97;72.99;101754.69;4821837;29;20034;-68
2022/05/13 05:27:55;;;;;;;11.70;3.95;;;;;;;11.94;74.00;101753.22;4821467;29;20426;-68
2022/05/13 05:30:22;;;;;;;18.10;5.32;;;;;;;11.90;73.67;101759.16;4821360;29;20117;-68
2022/05/13 05:32:47;;;;;;;11.70;3.70;;;;;;;11.85;73.75;101765.00;4821419;29;20397;-68
2022/05/13 05:35:16;;;;;;;8.65;3.40;;;;;;;11.83;74.16;101767.84;4821455;29;20046;-68
2022/05/13 05:37:42;;;;;;;15.60;4.53;;;;;;;11.84;74.23;101769.53;4821755;29;20034;-68
2022/05/13 05:40:09;;;;;;;11.60;4.88;;;;;;;11.83;74.22;101767.84;4821715;29;20038;-68
2022/05/13 05:42:35;;;;;;;12.80;4.47;;;;;;;11.84;74.31;101777.53;4821604;29;20040;-68
2022/05/13 05:45:00;;;;;;;13.80;4.82;;;;;;;11.83;74.33;101775.88;4821681;29;20403;-68
2022/05/13 05:47:26;;;;;;;8.43;3.90;;;;;;;11.84;74.95;101790.06;4821560;29;20038;-68
2022/05/13 05:49:51;;;;;;;12.30;4.03;;;;;;;11.84;74.54;101790.91;4821462;29;20042;-68
2022/05/13 05:52:17;;;;;;;9.63;4.50;;;;;;;11.83;74.52;101791.06;4821563;29;20031;-68
2022/05/13 05:57:27;;;;;;;17.75;6.28;;;;;;;11.91;74.73;101791.03;4821769;29;20044;-68
2022/05/13 05:59:53;;;;;;;16.35;5.85;;;;;;;11.93;74.85;101801.53;4821521;29;20095;-68
2022/05/13 06:02:19;;;;;;;11.15;5.22;;;;;;;11.97;75.13;101795.66;4821304;29;20459;-68
2022/05/13 06:04:45;;;;;;;18.63;5.45;;;;;;;12.03;74.93;101796.78;4821340;29;20113;-68
2022/05/13 06:07:13;;;;;;;14.05;4.85;;;;;;;12.09;74.87;101803.22;4821121;29;20499;-68
2022/05/13 06:09:41;;;;;;;16.05;6.07;;;;;;;12.15;74.67;101805.97;4820384;29;20380;-68
2022/05/13 06:12:08;;;;;;;15.52;5.07;;;;;;;12.27;74.50;101809.88;4821272;29;20065;-68
2022/05/13 06:14:34;;;;;;;12.30;4.07;;;;;;;12.41;74.34;101810.88;4821091;29;20125;-68
2022/05/13 06:16:59;;;;;;;14.68;5.95;;;;;;;12.52;73.29;101819.44;4821110;29;20045;-68
2022/05/13 06:19:25;;;;;;;15.65;4.40;;;;;;;12.58;73.82;101814.19;4821200;29;20030;-68
2022/05/13 06:21:51;;;;;;;13.68;5.45;;;;;;;12.58;73.46;101827.59;4821083;29;20090;-69
2022/05/13 06:24:18;;;;;;;15.50;5.45;;;;;;;12.63;73.51;101827.84;4821030;29;20034;-68
2022/05/13 06:26:48;;;;;;;11.77;5.07;;;;;;;12.70;73.90;101833.28;4821026;29;20111;-68
2022/05/13 06:29:14;;;;;;;14.65;6.28;;;;;;;12.71;73.57;101825.06;4820689;29;20061;-69
2022/05/13 06:31:40;;;;;;;14.85;6.15;;;;;;;12.86;72.87;101830.41;4820620;29;20037;-68
2022/05/13 06:34:05;;;;;;;13.05;4.50;;;;;;;12.90;73.38;101834.34;4820763;29;20038;-69
2022/05/13 06:36:31;;;;;;;12.10;5.38;;;;;;;12.94;73.08;101841.00;4820385;29;20125;-69
2022/05/13 06:38:58;;;;;;;13.75;5.88;;;;;;;13.00;73.09;101833.25;4821014;29;20038;-69
2022/05/13 06:41:24;;;;;;;16.13;6.03;;;;;;;13.00;73.33;101827.88;4820778;29;20091;-69
2022/05/13 06:43:50;;;;;;;18.13;7.22;;;;;;;13.01;73.54;101832.22;4820912;29;20037;-68
2022/05/13 06:46:15;;;;;;;15.95;6.45;;;;;;;13.09;73.36;101832.91;4820828;29;20041;-68
2022/05/13 06:48:40;;;;;;;15.50;6.32;;;;;;;13.18;72.59;101832.81;4804343;29;20038;-68
2022/05/13 06:51:06;;;;;;;10.25;5.32;;;;;;;13.23;72.74;101843.78;4820760;29;20034;-68
2022/05/13 06:53:31;;;;;;;17.48;6.07;;;;;;;13.24;72.80;101840.91;4797026;29;20120;-68
2022/05/13 06:55:57;;;;;;;13.13;5.70;;;;;;;13.30;72.71;101842.03;4820587;29;20034;-68
2022/05/13 06:58:22;;;;;;;14.70;7.00;;;;;;;13.29;72.30;101841.22;4820735;29;20041;-68
2022/05/13 07:00:48;;;;;;;16.85;6.57;;;;;;;13.28;72.56;101842.25;4820682;29;20046;-69
2022/05/13 07:03:15;;;;;;;17.70;7.30;;;;;;;13.31;73.03;101846.41;4820692;29;20040;-68
2022/05/13 07:05:41;;;;;;;16.60;5.78;;;;;;;13.32;73.28;101840.81;4820617;29;20031;-69
2022/05/13 07:08:07;;;;;;;15.43;6.43;;;;;;;13.34;73.17;101840.66;4820472;29;20449;-69
2022/05/13 07:10:33;;;;;;;14.77;7.68;;;;;;;13.38;72.54;101836.56;4804099;29;20042;-69
2022/05/13 07:13:00;;;;;;;16.73;6.30;;;;;;;13.45;72.63;101844.69;4820364;29;20494;-69
2022/05/13 07:15:26;;;;;;;11.18;5.60;;;;;;;13.55;72.42;101843.31;4820386;29;20038;-68
2022/05/13 07:17:51;;;;;;;14.90;6.03;;;;;;;13.62;72.76;101850.59;4820499;29;20471;-68
2022/05/13 07:20:17;;;;;;;18.33;5.97;;;;;;;13.68;71.83;101831.91;4820421;29;20558;-68
2022/05/13 07:22:42;;;;;;;19.45;6.38;;;;;;;13.69;72.31;101838.09;4823736;29;20030;-68
2022/05/13 07:25:08;;;;;;;13.77;6.20;;;;;;;13.73;71.63;101845.56;4823788;29;20379;-68
2022/05/13 07:27:34;;;;;;;17.10;7.07;;;;;;;13.76;71.24;101838.97;4823831;29;20034;-68
2022/05/13 07:29:59;;;;;;;17.98;7.60;;;;;;;13.79;71.41;101846.63;4823536;29;20038;-69
2022/05/13 07:32:24;;;;;;;12.15;5.88;;;;;;;13.93;71.20;101850.25;4823482;29;20045;-69
2022/05/13 07:34:50;;;;;;;14.32;6.38;;;;;;;14.01;70.04;101845.56;4823293;29;20037;-68
2022/05/13 07:37:15;;;;;;;17.83;7.13;;;;;;;14.09;70.07;101849.94;4823548;29;20034;-69
2022/05/13 07:42:25;;;;;;;15.52;6.15;;;;;;;14.28;69.74;101852.97;4823738;29;20069;-69
2022/05/13 07:44:50;;;;;;;11.93;7.13;;;;;;;14.34;68.25;101852.19;4823540;29;20030;-69
2022/05/13 07:47:18;;;;;;;9.57;6.35;;;;;;;14.38;68.33;101858.81;4823468;29;20609;-69
2022/05/13 07:49:44;;;;;;;14.98;6.72;;;;;;;14.46;68.52;101861.34;4821763;29;20030;-68
2022/05/13 07:52:10;;;;;;;15.23;7.97;;;;;;;14.53;68.30;101858.72;4823397;29;20410;-68
2022/05/13 07:54:35;;;;;;;11.00;6.60;;;;;;;14.69;67.49;101856.53;4823187;29;20430;-69
2022/05/13 07:57:02;;;;;;;15.35;5.95;;;;;;;14.73;68.10;101857.00;4823208;29;20034;-69
2022/05/13 07:59:28;;;;;;;15.43;7.63;;;;;;;14.77;67.06;101863.59;4823262;29;20032;-68
2022/05/13 08:01:54;;;;;;;12.75;6.13;;;;;;;14.74;67.38;101858.63;4823157;29;20403;-68
2022/05/13 08:04:19;;;;;;;13.80;6.78;;;;;;;14.85;66.84;101863.44;4823158;29;20061;-68
2022/05/13 08:06:45;;;;;;;20.95;7.18;;;;;;;15.21;65.78;101872.25;4822995;29;20101;-69
2022/05/13 08:09:11;;;;;;;15.60;7.25;;;;;;;15.60;63.81;101868.81;4823026;29;20034;-69
2022/05/13 08:11:36;;;;;;;9.52;5.93;;;;;;;15.64;63.81;101863.84;4822981;29;20042;-69
2022/05/13 08:14:02;;;;;;;10.48;6.05;;;;;;;15.50;63.74;101866.53;4823094;29;20034;-69
2022/05/13 08:16:29;;;;;;;12.55;6.15;;;;;;;15.32;64.67;101872.47;4822546;29;20085;-69
2022/05/13 08:18:58;;;;;;;13.45;6.20;;;;;;;15.04;64.88;101874.47;4822701;29;20041;-69
2022/05/13 08:21:24;;;;;;;12.52;5.90;;;;;;;14.85;65.99;101879.53;4822984;29;20042;-69
2022/05/13 08:23:50;;;;;;;10.70;5.65;;;;;;;14.73;66.45;101874.97;4822876;29;21080;-69
2022/05/13 08:26:15;;;;;;;10.20;5.75;;;;;;;14.61;66.62;101880.88;4822709;29;20041;-69
2022/05/13 08:28:41;;;;;;;11.38;5.93;;;;;;;14.44;67.18;101884.88;4822680;29;20060;-69
2022/05/13 08:31:07;;;;;;;18.52;8.05;;;;;;;14.33;67.41;101875.53;4822719;29;20471;-69
2022/05/13 08:33:33;;;;;;;12.02;5.45;;;;;;;14.23;67.89;101886.59;4821829;29;20121;-69
2022/05/13 08:36:04;;;;;;;11.23;6.18;;;;;;;14.19;67.43;101882.63;4822649;29;20038;-69
2022/05/13 08:38:35;;;;;;;9.93;6.43;;;;;;;14.22;67.87;101889.47;4822573;29;20494;-69
2022/05/13 08:41:10;;;;;;;11.85;5.70;;;;;;;14.39;67.59;101898.06;4822618;29;20030;-69
2022/05/13 08:43:35;;;;;;;11.32;5.45;;;;;;;14.63;65.87;101894.09;4822536;29;20034;-69
2022/05/13 08:46:16;;;;;;;13.38;6.07;;;;;;;14.83;65.45;101900.41;4821284;29;20498;-69
2022/05/13 08:48:57;;;;;;;12.10;5.72;;;;;;;15.04;64.54;101891.44;4822468;29;20038;-69
2022/05/13 08:51:41;;;;;;;13.38;5.45;;;;;;;16.35;62.60;101891.00;4822303;29;20120;-69
2022/05/13 08:54:18;;;;;;;10.00;4.65;;;;;;;17.31;58.65;101887.56;4822336;29;20080;-69
2022/05/13 08:56:50;;;;;;;9.48;4.28;;;;;;;17.05;57.67;101899.31;4822365;29;20073;-69
2022/05/13 08:59:25;;;;;;;14.98;5.35;;;;;;;16.63;58.67;101896.09;4822272;29;20593;-69
2022/05/13 09:02:12;;;;;;;9.02;5.18;;;;;;;16.25;59.85;101895.97;4821712;29;20038;-69
2022/05/13 09:04:43;;;;;;;10.82;4.90;;;;;;;15.84;59.87;101902.38;4822251;29;20509;-69
2022/05/13 09:07:18;;;;;;;9.35;5.60;;;;;;;15.58;61.47;101900.47;4822190;29;20468;-69
2022/05/13 09:09:47;;;;;;;11.55;4.63;;;;;;;15.46;61.79;101907.47;4822249;29;20408;-69
2022/05/13 09:12:20;;;;;;;13.95;5.72;;;;;;;15.29;61.61;101913.19;4822109;29;20478;-69
2022/05/13 09:15:08;;;;;;;6.35;3.67;;;;;;;15.16;61.65;101905.09;4822069;29;20042;-69
2022/05/13 09:17:42;;;;;;;10.05;3.97;;;;;;;15.04;61.72;101896.78;4822046;29;20558;-69
2022/05/13 09:20:12;;;;;;;15.02;4.90;;;;;;;15.00;62.33;101900.91;4822063;29;20035;-69
2022/05/13 09:22:52;;;;;;;9.73;4.40;;;;;;;15.20;62.36;101897.47;4821819;29;20048;-69
2022/05/13 09:25:42;;;;;;;10.27;4.63;;;;;;;15.68;61.84;101900.88;4822131;29;20487;-69
2022/05/13 09:28:11;;;;;;;8.10;3.67;;;;;;;16.10;60.64;101898.88;4821948;29;20395;-69
2022/05/13 09:30:40;;;;;;;14.63;4.72;;;;;;;16.30;58.89;101898.88;4805388;29;20467;-69
2022/05/13 09:33:25;;;;;;;9.43;3.72;;;;;;;16.40;58.40;101898.41;4821737;29;20100;-69
2022/05/13 09:35:57;;;;;;;8.60;3.83;;;;;;;16.49;57.78;101904.44;4821815;29;20041;-69
2022/05/13 09:38:25;;;;;;;10.98;4.07;;;;;;;16.43;57.85;101908.81;4821660;29;20042;-69
2022/05/13 09:41:05;;;;;;;12.13;4.47;;;;;;;16.34;57.23;101902.78;4821801;29;20414;-69
2022/05/13 09:43:37;;;;;;;8.68;3.65;;;;;;;16.23;57.41;101913.38;4821494;29;20121;-69
2022/05/13 09:46:12;;;;;;;7.65;3.53;;;;;;;16.21;57.43;101914.38;4821629;29;20026;-69
2022/05/13 09:48:50;;;;;;;8.57;3.55;;;;;;;16.26;56.60;101921.84;4821729;29;20125;-69
2022/05/13 09:51:35;;;;;;;5.93;3.42;;;;;;;16.61;55.46;101908.13;4821634;29;20063;-69
2022/05/13 09:54:13;;;;;;;11.90;4.57;;;;;;;16.77;55.19;101909.56;4821389;29;20046;-69
2022/05/13 09:56:47;;;;;;;6.78;3.47;;;;;;;16.80;54.85;101909.16;4821352;29;20030;-69
2022/05/13 09:59:25;;;;;;;9.60;3.72;;;;;;;16.80;55.07;101909.16;4821473;29;20411;-69
2022/05/13 10:01:52;;;;;;;10.95;3.13;;;;;;;16.55;54.29;101907.09;4821425;29;20042;-69
2022/05/13 10:04:23;;;;;;;6.43;2.90;;;;;;;16.56;54.76;101916.84;4821210;29;20031;-69
2022/05/13 10:06:48;;;;;;;2.42;2.17;;;;;;;16.90;52.97;101908.69;4821173;29;20061;-69
2022/05/13 10:15:10;;;;;;;10.13;2.65;;;;;;;17.64;50.98;101908.13;4821485;29;20123;-68
2022/05/13 10:17:44;;;;;;;8.07;2.92;;;;;;;17.84;49.70;101918.81;4821406;29;20531;-69
2022/05/13 10:20:15;;;;;;;6.13;2.33;;;;;;;17.99;50.39;101912.25;4821159;29;20038;-69
2022/05/13 10:22:55;;;;;;;4.97;2.30;;;;;;;18.18;49.36;101904.00;4821111;29;20113;-69
2022/05/13 10:25:33;;;;;;;5.97;2.70;;;;;;;18.01;48.94;101912.88;4821034;29;20034;-69
2022/05/13 10:28:15;;;;;;;5.07;3.05;;;;;;;17.84;50.11;101909.88;4821077;29;20034;-69
2022/05/13 10:30:59;;;;;;;5.75;3.25;;;;;;;17.77;49.85;101904.50;4821152;29;20375;-69
2022/05/13 10:33:49;;;;;;;3.47;2.53;;;;;;;17.85;48.92;101904.28;4820965;29;20716;-69
2022/05/13 10:36:21;;;;;;;4.55;2.88;;;;;;;17.92;49.87;101909.59;4820806;29;20030;-69
2022/05/13 10:38:56;;;;;;;6.18;3.10;;;;;;;17.90;50.18;101909.84;4820991;29;20030;-69
2022/05/13 10:41:32;;;;;;;6.47;3.38;;;;;;;17.68;49.58;101905.81;4820964;29;20053;-69
2022/05/13 10:43:58;;;;;;;7.18;3.28;;;;;;;17.46;50.02;101908.03;4820807;29;20494;-69
2022/05/13 10:46:31;;;;;;;7.38;2.60;;;;;;;17.43;50.32;101911.16;4820862;29;20060;-69
2022/05/13 10:48:57;;;;;;;5.50;2.72;;;;;;;17.53;49.50;101903.44;4820812;29;20046;-69
2022/05/13 10:51:38;;;;;;;5.78;2.22;;;;;;;17.55;49.92;101906.72;4820710;29;20039;-69
2022/05/13 10:54:34;;;;;;;6.95;3.38;;;;;;;17.48;49.59;101912.16;4820849;29;20496;-69
2022/05/13 10:57:18;;;;;;;5.82;2.30;;;;;;;17.41;49.87;101902.47;4820266;29;20038;-69
2022/05/13 10:59:52;;;;;;;4.65;2.28;;;;;;;17.43;49.35;101911.16;4820675;29;20035;-69
2022/05/13 11:02:48;;;;;;;8.43;3.28;;;;;;;17.28;50.40;101914.97;4820521;29;20034;-69
2022/05/13 11:05:26;;;;;;;7.97;2.60;;;;;;;17.26;51.32;101914.34;4820596;29;20065;-69
2022/05/13 11:08:06;;;;;;;6.03;2.78;;;;;;;17.31;51.28;101914.53;4820416;29;20062;-69
2022/05/13 11:10:48;;;;;;;4.90;2.83;;;;;;;17.36;50.67;101916.59;4820580;29;20406;-69
2022/05/13 11:13:52;;;;;;;5.15;2.25;;;;;;;17.39;48.90;101912.63;4820576;29;20034;-69
2022/05/13 11:16:32;;;;;;;3.80;2.00;;;;;;;17.38;48.15;101906.41;4820375;29;20512;-69
2022/05/13 11:19:36;;;;;;;9.70;2.50;;;;;;;17.39;49.82;101912.63;4820540;29;20030;-69
2022/05/13 11:22:17;;;;;;;9.23;2.58;;;;;;;17.34;48.89;101913.25;4818008;29;20383;-69
2022/05/13 11:28:02;;;;;;;2.15;1.95;;;;;;;17.40;49.70;101919.69;4820390;29;20122;-68
2022/05/13 11:30:36;;;;;;;8.80;2.97;;;;;;;17.34;48.60;101915.97;4820324;29;20034;-69
2022/05/13 11:33:23;;;;;;;10.30;2.10;;;;;;;17.27;49.11;101916.00;4820278;29;20030;-70
2022/05/13 11:36:10;;;;;;;8.45;2.42;;;;;;;17.26;50.21;101900.84;4820278;29;20048;-69
2022/05/13 11:39:06;;;;;;;10.45;3.30;;;;;;;17.35;50.22;101911.44;4820275;29;20034;-69
2022/05/13 11:42:02;;;;;;;8.82;2.67;;;;;;;17.52;50.48;101907.16;4820155;29;20038;-69
2022/05/13 11:44:49;;;;;;;15.13;3.97;;;;;;;17.83;48.69;101905.53;4820158;29;20030;-69
2022/05/13 11:47:24;;;;;;;7.90;3.38;;;;;;;17.84;48.42;101904.47;4820144;29;20057;-69
2022/05/13 11:49:51;;;;;;;6.00;2.80;;;;;;;17.89;48.42;101905.50;4820199;29;20107;-69
2022/05/13 11:52:16;;;;;;;6.13;3.63;;;;;;;18.07;50.37;101898.47;4820182;29;20046;-70
2022/05/13 11:54:43;;;;;;;7.53;3.53;;;;;;;18.31;48.96;101905.75;4820102;29;20038;-74
2022/05/13 11:57:21;;;;;;;6.53;2.20;;;;;;;18.72;49.45;101903.47;4820072;29;20279;-69
2022/05/13 11:59:54;;;;;;;4.60;2.33;;;;;;;18.94;47.66;101912.81;4820162;29;20030;-69